Weather at Sir Seewoosagur Ramgoolam International Airport

Public forecast

Using degrees Celsius for public forecast. Weather courtesy of forecast.io.

Current aviation weather report (METAR) for Sir Seewoosagur Ramgoolam International Airport

Report is more than 6 hours old.

2022/11/14 15:00 (retrieved 2 years ago)

FIMP 141500Z 16012KT 9999 VCSH SCT016 BKN050 23/17 Q1017

Aviation forecast (TAF) for Sir Seewoosagur Ramgoolam International Airport

Forecast is more than 12 hours old.

2023/02/22 18:00 Correction (retrieved 1 year ago)

TAF COR FIMP 221720Z 2218/2400 11010KT 9999 SCT018 TEMPO 2306/2318 7000 -SHRA FEW010 BKN015